Terminal Aerodrome Forecast
Issued by NWS Cleveland, OH

Home | Current Version | Previous Version | Text Only | Print | Product List | Glossary On
Versions: 1 2 3 4 5 6 7 8 9 10 11 12 13 14 15 16 17 18 19 20 21
000
FTUS41 KCLE 271100
TAFCAK
TAF
KCAK 271128Z 2712/2812 34006KT 4SM -SN SCT012 OVC025
      TEMPO 2712/2716 2SM -SN BKN012
     FM271700 34008KT P6SM OVC025
     FM280400 34005KT P6SM SKC=

USA.gov is the U.S. government's official web portal to all federal, state and local government web resources and services.